sensor_id;sensor_type;location;lat;lon;timestamp;P1;durP1;ratioP1;P2;durP2;ratioP2
48574;SDS011;34352;51.084;3.712;2022-07-23T00:00:51;15.30;;;9.63;;
48574;SDS011;34352;51.084;3.712;2022-07-23T00:03:16;12.90;;;9.70;;
48574;SDS011;34352;51.084;3.712;2022-07-23T00:05:42;13.27;;;8.88;;
48574;SDS011;34352;51.084;3.712;2022-07-23T00:08:10;13.20;;;8.80;;
48574;SDS011;34352;51.084;3.712;2022-07-23T00:10:36;11.15;;;8.75;;
48574;SDS011;34352;51.084;3.712;2022-07-23T00:13:02;12.38;;;8.77;;
48574;SDS011;34352;51.084;3.712;2022-07-23T00:15:28;9.88;;;7.57;;
48574;SDS011;34352;51.084;3.712;2022-07-23T00:17:54;11.38;;;7.43;;
48574;SDS011;34352;51.084;3.712;2022-07-23T00:20:20;13.23;;;7.70;;
48574;SDS011;34352;51.084;3.712;2022-07-23T00:22:49;10.85;;;7.45;;
48574;SDS011;34352;51.084;3.712;2022-07-23T00:25:16;9.82;;;7.20;;
48574;SDS011;34352;51.084;3.712;2022-07-23T00:27:43;13.15;;;8.00;;
48574;SDS011;34352;51.084;3.712;2022-07-23T00:30:09;10.23;;;7.38;;
48574;SDS011;34352;51.084;3.712;2022-07-23T00:32:49;13.48;;;7.78;;
48574;SDS011;34352;51.084;3.712;2022-07-23T00:35:16;9.43;;;7.70;;
48574;SDS011;34352;51.084;3.712;2022-07-23T00:37:45;12.57;;;7.72;;
48574;SDS011;34352;51.084;3.712;2022-07-23T00:40:11;11.10;;;7.57;;
48574;SDS011;34352;51.084;3.712;2022-07-23T00:42:38;11.07;;;7.85;;
48574;SDS011;34352;51.084;3.712;2022-07-23T00:45:07;13.63;;;7.78;;
48574;SDS011;34352;51.084;3.712;2022-07-23T00:47:34;14.18;;;7.78;;
48574;SDS011;34352;51.084;3.712;2022-07-23T00:50:01;9.43;;;7.88;;
48574;SDS011;34352;51.084;3.712;2022-07-23T00:52:28;12.90;;;8.25;;
48574;SDS011;34352;51.084;3.712;2022-07-23T00:54:57;10.43;;;7.90;;
48574;SDS011;34352;51.084;3.712;2022-07-23T00:57:26;13.23;;;8.73;;
48574;SDS011;34352;51.084;3.712;2022-07-23T00:59:52;10.25;;;7.93;;
48574;SDS011;34352;51.084;3.712;2022-07-23T01:02:18;16.17;;;8.65;;
48574;SDS011;34352;51.084;3.712;2022-07-23T01:04:45;13.35;;;8.98;;
48574;SDS011;34352;51.084;3.712;2022-07-23T01:07:11;13.25;;;8.40;;
48574;SDS011;34352;51.084;3.712;2022-07-23T01:12:06;12.95;;;8.57;;
48574;SDS011;34352;51.084;3.712;2022-07-23T01:14:35;14.13;;;8.82;;
48574;SDS011;34352;51.084;3.712;2022-07-23T01:17:01;16.95;;;9.80;;
48574;SDS011;34352;51.084;3.712;2022-07-23T01:19:27;14.05;;;9.40;;
48574;SDS011;34352;51.084;3.712;2022-07-23T01:21:54;12.52;;;9.23;;
48574;SDS011;34352;51.084;3.712;2022-07-23T01:24:22;16.95;;;9.57;;
48574;SDS011;34352;51.084;3.712;2022-07-23T01:26:50;18.67;;;9.57;;
48574;SDS011;34352;51.084;3.712;2022-07-23T01:29:16;15.38;;;9.32;;
48574;SDS011;34352;51.084;3.712;2022-07-23T01:31:42;13.45;;;8.93;;
48574;SDS011;34352;51.084;3.712;2022-07-23T01:34:09;14.32;;;9.57;;
48574;SDS011;34352;51.084;3.712;2022-07-23T01:36:36;13.77;;;9.55;;
48574;SDS011;34352;51.084;3.712;2022-07-23T01:39:03;13.13;;;9.73;;
48574;SDS011;34352;51.084;3.712;2022-07-23T01:41:30;13.50;;;10.10;;
48574;SDS011;34352;51.084;3.712;2022-07-23T01:43:58;14.20;;;9.93;;
48574;SDS011;34352;51.084;3.712;2022-07-23T01:46:26;16.08;;;9.27;;
48574;SDS011;34352;51.084;3.712;2022-07-23T01:48:52;14.48;;;10.25;;
48574;SDS011;34352;51.084;3.712;2022-07-23T01:51:17;15.48;;;10.55;;
48574;SDS011;34352;51.084;3.712;2022-07-23T01:53:45;15.25;;;10.55;;
48574;SDS011;34352;51.084;3.712;2022-07-23T01:56:11;16.60;;;10.43;;
48574;SDS011;34352;51.084;3.712;2022-07-23T01:58:36;16.25;;;9.88;;
48574;SDS011;34352;51.084;3.712;2022-07-23T02:01:03;15.30;;;10.05;;
48574;SDS011;34352;51.084;3.712;2022-07-23T02:03:30;16.13;;;10.23;;
48574;SDS011;34352;51.084;3.712;2022-07-23T02:05:57;18.42;;;10.35;;
48574;SDS011;34352;51.084;3.712;2022-07-23T02:08:22;18.10;;;10.80;;
48574;SDS011;34352;51.084;3.712;2022-07-23T02:10:48;17.27;;;10.88;;
48574;SDS011;34352;51.084;3.712;2022-07-23T02:13:17;15.00;;;10.60;;
48574;SDS011;34352;51.084;3.712;2022-07-23T02:15:43;17.73;;;11.75;;
48574;SDS011;34352;51.084;3.712;2022-07-23T02:18:10;16.38;;;11.23;;
48574;SDS011;34352;51.084;3.712;2022-07-23T02:20:36;18.98;;;12.50;;
48574;SDS011;34352;51.084;3.712;2022-07-23T02:23:03;16.00;;;11.85;;
48574;SDS011;34352;51.084;3.712;2022-07-23T02:25:30;20.90;;;13.35;;
48574;SDS011;34352;51.084;3.712;2022-07-23T02:27:56;22.38;;;13.93;;
48574;SDS011;34352;51.084;3.712;2022-07-23T02:30:22;24.20;;;14.85;;
48574;SDS011;34352;51.084;3.712;2022-07-23T02:32:48;19.77;;;14.77;;
48574;SDS011;34352;51.084;3.712;2022-07-23T02:35:15;21.27;;;14.23;;
48574;SDS011;34352;51.084;3.712;2022-07-23T02:37:41;22.83;;;14.27;;
48574;SDS011;34352;51.084;3.712;2022-07-23T02:40:07;25.85;;;14.90;;
48574;SDS011;34352;51.084;3.712;2022-07-23T02:42:33;24.70;;;15.43;;
48574;SDS011;34352;51.084;3.712;2022-07-23T02:44:58;20.13;;;14.68;;
48574;SDS011;34352;51.084;3.712;2022-07-23T02:47:24;22.17;;;15.10;;
48574;SDS011;34352;51.084;3.712;2022-07-23T02:49:50;18.92;;;14.55;;
48574;SDS011;34352;51.084;3.712;2022-07-23T02:52:16;18.20;;;13.55;;
48574;SDS011;34352;51.084;3.712;2022-07-23T02:54:41;20.95;;;14.20;;
48574;SDS011;34352;51.084;3.712;2022-07-23T02:57:07;18.70;;;13.43;;
48574;SDS011;34352;51.084;3.712;2022-07-23T02:59:34;17.65;;;13.57;;
48574;SDS011;34352;51.084;3.712;2022-07-23T03:01:59;21.92;;;15.15;;
48574;SDS011;34352;51.084;3.712;2022-07-23T03:04:25;23.33;;;14.18;;
48574;SDS011;34352;51.084;3.712;2022-07-23T03:06:52;20.70;;;14.43;;
48574;SDS011;34352;51.084;3.712;2022-07-23T03:09:18;22.13;;;15.32;;
48574;SDS011;34352;51.084;3.712;2022-07-23T03:11:45;28.80;;;19.08;;
48574;SDS011;34352;51.084;3.712;2022-07-23T03:14:11;24.80;;;19.30;;
48574;SDS011;34352;51.084;3.712;2022-07-23T03:16:38;27.08;;;18.48;;
48574;SDS011;34352;51.084;3.712;2022-07-23T03:19:04;27.98;;;19.42;;
48574;SDS011;34352;51.084;3.712;2022-07-23T03:21:30;29.73;;;19.83;;
48574;SDS011;34352;51.084;3.712;2022-07-23T03:23:56;28.80;;;19.73;;
48574;SDS011;34352;51.084;3.712;2022-07-23T03:26:22;31.45;;;20.13;;
48574;SDS011;34352;51.084;3.712;2022-07-23T03:28:50;26.13;;;19.15;;
48574;SDS011;34352;51.084;3.712;2022-07-23T03:31:24;27.35;;;18.58;;
48574;SDS011;34352;51.084;3.712;2022-07-23T03:33:49;26.50;;;18.08;;
48574;SDS011;34352;51.084;3.712;2022-07-23T03:36:15;25.35;;;16.90;;
48574;SDS011;34352;51.084;3.712;2022-07-23T03:38:42;24.90;;;17.25;;
48574;SDS011;34352;51.084;3.712;2022-07-23T03:41:08;26.05;;;17.02;;
48574;SDS011;34352;51.084;3.712;2022-07-23T03:43:33;25.58;;;17.15;;
48574;SDS011;34352;51.084;3.712;2022-07-23T03:45:59;24.35;;;17.10;;
48574;SDS011;34352;51.084;3.712;2022-07-23T03:48:26;24.60;;;18.05;;
48574;SDS011;34352;51.084;3.712;2022-07-23T03:50:51;27.40;;;17.92;;
48574;SDS011;34352;51.084;3.712;2022-07-23T03:53:20;26.55;;;17.40;;
48574;SDS011;34352;51.084;3.712;2022-07-23T03:55:46;24.08;;;16.95;;
48574;SDS011;34352;51.084;3.712;2022-07-23T03:58:11;25.17;;;16.45;;
48574;SDS011;34352;51.084;3.712;2022-07-23T04:00:37;27.98;;;17.55;;
48574;SDS011;34352;51.084;3.712;2022-07-23T04:03:03;26.05;;;17.60;;
48574;SDS011;34352;51.084;3.712;2022-07-23T04:05:29;24.52;;;18.27;;
48574;SDS011;34352;51.084;3.712;2022-07-23T04:07:54;29.05;;;18.25;;
48574;SDS011;34352;51.084;3.712;2022-07-23T04:10:21;26.75;;;17.90;;
48574;SDS011;34352;51.084;3.712;2022-07-23T04:12:47;25.35;;;17.40;;
48574;SDS011;34352;51.084;3.712;2022-07-23T04:15:12;28.58;;;16.95;;
48574;SDS011;34352;51.084;3.712;2022-07-23T04:17:38;28.08;;;17.92;;
48574;SDS011;34352;51.084;3.712;2022-07-23T04:20:04;26.38;;;18.42;;
48574;SDS011;34352;51.084;3.712;2022-07-23T04:22:30;26.90;;;18.25;;
48574;SDS011;34352;51.084;3.712;2022-07-23T04:24:56;24.80;;;17.25;;
48574;SDS011;34352;51.084;3.712;2022-07-23T04:27:21;29.48;;;18.00;;
48574;SDS011;34352;51.084;3.712;2022-07-23T04:29:47;26.50;;;17.63;;
48574;SDS011;34352;51.084;3.712;2022-07-23T04:32:14;24.80;;;16.95;;
48574;SDS011;34352;51.084;3.712;2022-07-23T04:34:40;24.77;;;16.95;;
48574;SDS011;34352;51.084;3.712;2022-07-23T04:37:06;26.65;;;16.48;;
48574;SDS011;34352;51.084;3.712;2022-07-23T04:39:33;26.55;;;17.00;;
48574;SDS011;34352;51.084;3.712;2022-07-23T04:41:58;21.65;;;15.43;;
48574;SDS011;34352;51.084;3.712;2022-07-23T04:44:24;20.33;;;15.38;;
48574;SDS011;34352;51.084;3.712;2022-07-23T04:46:50;19.55;;;15.18;;
48574;SDS011;34352;51.084;3.712;2022-07-23T04:49:15;21.40;;;14.70;;
48574;SDS011;34352;51.084;3.712;2022-07-23T04:51:41;18.80;;;14.48;;
48574;SDS011;34352;51.084;3.712;2022-07-23T04:54:07;19.83;;;15.10;;
48574;SDS011;34352;51.084;3.712;2022-07-23T04:56:32;25.08;;;15.32;;
48574;SDS011;34352;51.084;3.712;2022-07-23T04:58:58;20.73;;;14.20;;
48574;SDS011;34352;51.084;3.712;2022-07-23T05:01:25;19.15;;;14.85;;
48574;SDS011;34352;51.084;3.712;2022-07-23T05:03:50;19.13;;;14.65;;
48574;SDS011;34352;51.084;3.712;2022-07-23T05:06:16;20.73;;;14.52;;
48574;SDS011;34352;51.084;3.712;2022-07-23T05:08:42;20.92;;;13.57;;
48574;SDS011;34352;51.084;3.712;2022-07-23T05:11:09;17.58;;;12.80;;
48574;SDS011;34352;51.084;3.712;2022-07-23T05:13:34;19.00;;;12.85;;
48574;SDS011;34352;51.084;3.712;2022-07-23T05:16:04;16.98;;;12.88;;
48574;SDS011;34352;51.084;3.712;2022-07-23T05:18:30;18.90;;;12.90;;
48574;SDS011;34352;51.084;3.712;2022-07-23T05:20:56;15.07;;;12.55;;
48574;SDS011;34352;51.084;3.712;2022-07-23T05:23:22;16.50;;;13.13;;
48574;SDS011;34352;51.084;3.712;2022-07-23T05:25:48;17.25;;;13.45;;
48574;SDS011;34352;51.084;3.712;2022-07-23T05:28:15;17.65;;;14.20;;
48574;SDS011;34352;51.084;3.712;2022-07-23T05:30:40;19.75;;;13.93;;
48574;SDS011;34352;51.084;3.712;2022-07-23T05:33:06;15.68;;;13.88;;
48574;SDS011;34352;51.084;3.712;2022-07-23T05:35:39;17.73;;;12.27;;
48574;SDS011;34352;51.084;3.712;2022-07-23T05:38:05;16.88;;;12.13;;
48574;SDS011;34352;51.084;3.712;2022-07-23T05:40:30;14.85;;;11.70;;
48574;SDS011;34352;51.084;3.712;2022-07-23T05:43:04;16.13;;;11.80;;
48574;SDS011;34352;51.084;3.712;2022-07-23T05:45:30;13.63;;;10.82;;
48574;SDS011;34352;51.084;3.712;2022-07-23T05:47:58;12.13;;;10.30;;
48574;SDS011;34352;51.084;3.712;2022-07-23T05:50:24;12.88;;;10.40;;
48574;SDS011;34352;51.084;3.712;2022-07-23T05:52:49;14.82;;;10.60;;
48574;SDS011;34352;51.084;3.712;2022-07-23T05:55:16;15.68;;;10.15;;
48574;SDS011;34352;51.084;3.712;2022-07-23T05:57:42;13.05;;;9.40;;
48574;SDS011;34352;51.084;3.712;2022-07-23T06:00:08;10.80;;;9.45;;
48574;SDS011;34352;51.084;3.712;2022-07-23T06:02:34;12.60;;;9.90;;
48574;SDS011;34352;51.084;3.712;2022-07-23T06:05:02;14.45;;;10.23;;
48574;SDS011;34352;51.084;3.712;2022-07-23T06:07:29;15.00;;;9.23;;
48574;SDS011;34352;51.084;3.712;2022-07-23T06:09:56;11.88;;;9.48;;
48574;SDS011;34352;51.084;3.712;2022-07-23T06:12:22;12.57;;;9.60;;
48574;SDS011;34352;51.084;3.712;2022-07-23T06:14:48;16.67;;;9.45;;
48574;SDS011;34352;51.084;3.712;2022-07-23T06:17:15;12.32;;;9.45;;
48574;SDS011;34352;51.084;3.712;2022-07-23T06:19:41;14.25;;;9.68;;
48574;SDS011;34352;51.084;3.712;2022-07-23T06:22:07;11.45;;;9.18;;
48574;SDS011;34352;51.084;3.712;2022-07-23T06:24:33;13.00;;;9.50;;
48574;SDS011;34352;51.084;3.712;2022-07-23T06:26:59;12.65;;;9.65;;
48574;SDS011;34352;51.084;3.712;2022-07-23T06:29:26;16.35;;;10.07;;
48574;SDS011;34352;51.084;3.712;2022-07-23T06:31:53;13.65;;;9.02;;
48574;SDS011;34352;51.084;3.712;2022-07-23T06:34:20;15.23;;;9.27;;
48574;SDS011;34352;51.084;3.712;2022-07-23T06:36:45;13.70;;;10.15;;
48574;SDS011;34352;51.084;3.712;2022-07-23T06:39:11;13.75;;;9.15;;
48574;SDS011;34352;51.084;3.712;2022-07-23T06:41:37;16.90;;;9.95;;
48574;SDS011;34352;51.084;3.712;2022-07-23T06:44:04;14.30;;;9.90;;
48574;SDS011;34352;51.084;3.712;2022-07-23T06:46:30;14.65;;;9.80;;
48574;SDS011;34352;51.084;3.712;2022-07-23T06:48:56;13.93;;;10.18;;
48574;SDS011;34352;51.084;3.712;2022-07-23T06:51:21;14.18;;;10.65;;
48574;SDS011;34352;51.084;3.712;2022-07-23T06:53:47;19.35;;;10.75;;
48574;SDS011;34352;51.084;3.712;2022-07-23T06:56:13;16.40;;;10.50;;
48574;SDS011;34352;51.084;3.712;2022-07-23T06:58:42;13.70;;;9.45;;
48574;SDS011;34352;51.084;3.712;2022-07-23T07:01:08;12.93;;;9.30;;
48574;SDS011;34352;51.084;3.712;2022-07-23T07:03:34;14.10;;;9.15;;
48574;SDS011;34352;51.084;3.712;2022-07-23T07:06:00;13.80;;;9.20;;
48574;SDS011;34352;51.084;3.712;2022-07-23T07:08:29;11.48;;;9.52;;
48574;SDS011;34352;51.084;3.712;2022-07-23T07:10:55;11.60;;;8.68;;
48574;SDS011;34352;51.084;3.712;2022-07-23T07:13:22;10.80;;;8.35;;
48574;SDS011;34352;51.084;3.712;2022-07-23T07:15:48;11.02;;;8.27;;
48574;SDS011;34352;51.084;3.712;2022-07-23T07:18:15;11.48;;;8.23;;
48574;SDS011;34352;51.084;3.712;2022-07-23T07:20:40;10.38;;;8.02;;
48574;SDS011;34352;51.084;3.712;2022-07-23T07:23:06;9.73;;;7.57;;
48574;SDS011;34352;51.084;3.712;2022-07-23T07:25:32;12.48;;;8.38;;
48574;SDS011;34352;51.084;3.712;2022-07-23T07:27:57;10.27;;;7.93;;
48574;SDS011;34352;51.084;3.712;2022-07-23T07:30:24;14.05;;;8.32;;
48574;SDS011;34352;51.084;3.712;2022-07-23T07:32:50;10.18;;;7.97;;
48574;SDS011;34352;51.084;3.712;2022-07-23T07:35:16;11.48;;;8.13;;
48574;SDS011;34352;51.084;3.712;2022-07-23T07:37:43;12.23;;;9.00;;
48574;SDS011;34352;51.084;3.712;2022-07-23T07:40:09;10.13;;;8.00;;
48574;SDS011;34352;51.084;3.712;2022-07-23T07:42:43;10.30;;;8.80;;
48574;SDS011;34352;51.084;3.712;2022-07-23T07:45:10;16.58;;;9.15;;
48574;SDS011;34352;51.084;3.712;2022-07-23T07:47:36;11.45;;;8.90;;
48574;SDS011;34352;51.084;3.712;2022-07-23T07:50:02;12.48;;;9.45;;
48574;SDS011;34352;51.084;3.712;2022-07-23T07:52:28;12.00;;;8.85;;
48574;SDS011;34352;51.084;3.712;2022-07-23T07:54:54;11.40;;;8.27;;
48574;SDS011;34352;51.084;3.712;2022-07-23T07:57:21;12.88;;;9.00;;
48574;SDS011;34352;51.084;3.712;2022-07-23T07:59:47;10.40;;;9.30;;
48574;SDS011;34352;51.084;3.712;2022-07-23T08:02:12;13.43;;;9.25;;
48574;SDS011;34352;51.084;3.712;2022-07-23T08:04:38;11.40;;;8.90;;
48574;SDS011;34352;51.084;3.712;2022-07-23T08:07:05;12.02;;;8.48;;
48574;SDS011;34352;51.084;3.712;2022-07-23T08:09:32;11.45;;;9.20;;
48574;SDS011;34352;51.084;3.712;2022-07-23T08:11:57;11.52;;;8.55;;
48574;SDS011;34352;51.084;3.712;2022-07-23T08:14:23;9.77;;;8.45;;
48574;SDS011;34352;51.084;3.712;2022-07-23T08:16:49;11.07;;;9.10;;
48574;SDS011;34352;51.084;3.712;2022-07-23T08:19:15;10.80;;;8.40;;
48574;SDS011;34352;51.084;3.712;2022-07-23T08:21:40;11.40;;;8.85;;
48574;SDS011;34352;51.084;3.712;2022-07-23T08:24:06;12.60;;;9.30;;
48574;SDS011;34352;51.084;3.712;2022-07-23T08:26:33;14.40;;;10.07;;
48574;SDS011;34352;51.084;3.712;2022-07-23T08:28:59;12.85;;;9.50;;
48574;SDS011;34352;51.084;3.712;2022-07-23T08:31:24;11.35;;;8.40;;
48574;SDS011;34352;51.084;3.712;2022-07-23T08:33:50;11.07;;;8.70;;
48574;SDS011;34352;51.084;3.712;2022-07-23T08:36:19;12.82;;;8.95;;
48574;SDS011;34352;51.084;3.712;2022-07-23T08:38:45;10.57;;;8.95;;
48574;SDS011;34352;51.084;3.712;2022-07-23T08:41:10;11.18;;;8.40;;
48574;SDS011;34352;51.084;3.712;2022-07-23T08:43:37;11.70;;;8.65;;
48574;SDS011;34352;51.084;3.712;2022-07-23T08:46:03;10.48;;;7.60;;
48574;SDS011;34352;51.084;3.712;2022-07-23T08:48:33;10.98;;;8.25;;
48574;SDS011;34352;51.084;3.712;2022-07-23T08:53:29;8.40;;;7.20;;
48574;SDS011;34352;51.084;3.712;2022-07-23T08:55:56;8.93;;;6.90;;
48574;SDS011;34352;51.084;3.712;2022-07-23T08:58:24;9.27;;;7.50;;
48574;SDS011;34352;51.084;3.712;2022-07-23T09:00:51;10.45;;;6.82;;
48574;SDS011;34352;51.084;3.712;2022-07-23T09:05:42;12.20;;;7.97;;
48574;SDS011;34352;51.084;3.712;2022-07-23T09:08:09;9.75;;;8.40;;
48574;SDS011;34352;51.084;3.712;2022-07-23T09:13:24;9.75;;;7.43;;
48574;SDS011;34352;51.084;3.712;2022-07-23T09:18:57;8.50;;;6.80;;
48574;SDS011;34352;51.084;3.712;2022-07-23T09:24:01;7.75;;;6.32;;
48574;SDS011;34352;51.084;3.712;2022-07-23T09:26:43;7.05;;;6.00;;
48574;SDS011;34352;51.084;3.712;2022-07-23T09:36:49;7.05;;;6.07;;
48574;SDS011;34352;51.084;3.712;2022-07-23T09:39:27;6.97;;;6.18;;
48574;SDS011;34352;51.084;3.712;2022-07-23T09:41:58;7.13;;;6.32;;
48574;SDS011;34352;51.084;3.712;2022-07-23T09:44:58;6.80;;;5.47;;
48574;SDS011;34352;51.084;3.712;2022-07-23T09:47:25;5.60;;;4.90;;
48574;SDS011;34352;51.084;3.712;2022-07-23T09:50:05;5.43;;;4.55;;
48574;SDS011;34352;51.084;3.712;2022-07-23T09:52:43;7.40;;;4.78;;
48574;SDS011;34352;51.084;3.712;2022-07-23T09:55:12;7.80;;;5.93;;
48574;SDS011;34352;51.084;3.712;2022-07-23T09:57:43;7.55;;;5.15;;
48574;SDS011;34352;51.084;3.712;2022-07-23T10:00:11;6.78;;;5.88;;
48574;SDS011;34352;51.084;3.712;2022-07-23T10:02:38;5.72;;;5.10;;
48574;SDS011;34352;51.084;3.712;2022-07-23T10:05:05;7.10;;;6.30;;
48574;SDS011;34352;51.084;3.712;2022-07-23T10:07:33;6.22;;;5.32;;
48574;SDS011;34352;51.084;3.712;2022-07-23T10:10:01;6.10;;;5.15;;
48574;SDS011;34352;51.084;3.712;2022-07-23T10:12:29;7.90;;;5.30;;
48574;SDS011;34352;51.084;3.712;2022-07-23T10:15:00;8.32;;;5.75;;
48574;SDS011;34352;51.084;3.712;2022-07-23T10:17:29;7.88;;;6.38;;
48574;SDS011;34352;51.084;3.712;2022-07-23T10:19:55;6.63;;;5.70;;
48574;SDS011;34352;51.084;3.712;2022-07-23T10:22:22;7.28;;;5.35;;
48574;SDS011;34352;51.084;3.712;2022-07-23T10:27:36;8.05;;;5.32;;
48574;SDS011;34352;51.084;3.712;2022-07-23T10:30:18;5.72;;;4.85;;
48574;SDS011;34352;51.084;3.712;2022-07-23T10:35:58;8.20;;;5.95;;
48574;SDS011;34352;51.084;3.712;2022-07-23T10:38:40;7.47;;;5.30;;
48574;SDS011;34352;51.084;3.712;2022-07-23T10:41:17;8.85;;;6.47;;
48574;SDS011;34352;51.084;3.712;2022-07-23T10:44:37;6.10;;;5.50;;
48574;SDS011;34352;51.084;3.712;2022-07-23T10:47:03;10.00;;;6.10;;
48574;SDS011;34352;51.084;3.712;2022-07-23T10:49:47;7.30;;;5.57;;
48574;SDS011;34352;51.084;3.712;2022-07-23T10:54:41;6.53;;;5.80;;
48574;SDS011;34352;51.084;3.712;2022-07-23T10:57:30;7.57;;;5.72;;
48574;SDS011;34352;51.084;3.712;2022-07-23T11:02:46;7.22;;;5.28;;
48574;SDS011;34352;51.084;3.712;2022-07-23T11:05:15;7.95;;;6.20;;
48574;SDS011;34352;51.084;3.712;2022-07-23T11:10:39;7.68;;;5.60;;
48574;SDS011;34352;51.084;3.712;2022-07-23T11:21:51;6.25;;;4.97;;
48574;SDS011;34352;51.084;3.712;2022-07-23T11:31:54;6.95;;;5.30;;
48574;SDS011;34352;51.084;3.712;2022-07-23T11:37:08;7.25;;;5.10;;
48574;SDS011;34352;51.084;3.712;2022-07-23T11:39:37;7.20;;;4.85;;
48574;SDS011;34352;51.084;3.712;2022-07-23T11:42:04;5.43;;;4.90;;
48574;SDS011;34352;51.084;3.712;2022-07-23T11:44:36;6.47;;;5.40;;
48574;SDS011;34352;51.084;3.712;2022-07-23T11:49:30;6.35;;;4.82;;
48574;SDS011;34352;51.084;3.712;2022-07-23T11:52:12;5.18;;;4.03;;
48574;SDS011;34352;51.084;3.712;2022-07-23T11:57:29;4.00;;;3.33;;
48574;SDS011;34352;51.084;3.712;2022-07-23T12:00:02;4.82;;;3.92;;
48574;SDS011;34352;51.084;3.712;2022-07-23T12:02:31;5.65;;;4.00;;
48574;SDS011;34352;51.084;3.712;2022-07-23T12:04:57;4.55;;;3.50;;
48574;SDS011;34352;51.084;3.712;2022-07-23T12:09:52;4.00;;;3.60;;
48574;SDS011;34352;51.084;3.712;2022-07-23T12:12:18;3.75;;;3.15;;
48574;SDS011;34352;51.084;3.712;2022-07-23T12:15:03;3.70;;;3.08;;
48574;SDS011;34352;51.084;3.712;2022-07-23T12:17:30;3.33;;;2.90;;
48574;SDS011;34352;51.084;3.712;2022-07-23T12:19:58;5.05;;;3.20;;
48574;SDS011;34352;51.084;3.712;2022-07-23T12:22:25;4.38;;;3.42;;
48574;SDS011;34352;51.084;3.712;2022-07-23T12:25:01;4.68;;;4.07;;
48574;SDS011;34352;51.084;3.712;2022-07-23T12:27:30;5.20;;;3.85;;
48574;SDS011;34352;51.084;3.712;2022-07-23T12:29:56;4.85;;;3.72;;
48574;SDS011;34352;51.084;3.712;2022-07-23T12:32:24;5.72;;;4.32;;
48574;SDS011;34352;51.084;3.712;2022-07-23T12:35:02;5.03;;;3.42;;
48574;SDS011;34352;51.084;3.712;2022-07-23T12:37:37;4.50;;;4.10;;
48574;SDS011;34352;51.084;3.712;2022-07-23T12:43:00;4.45;;;3.42;;
48574;SDS011;34352;51.084;3.712;2022-07-23T12:45:51;3.47;;;3.28;;
48574;SDS011;34352;51.084;3.712;2022-07-23T12:48:23;6.47;;;4.00;;
48574;SDS011;34352;51.084;3.712;2022-07-23T12:51:03;4.70;;;3.72;;
48574;SDS011;34352;51.084;3.712;2022-07-23T12:53:40;4.00;;;3.60;;
48574;SDS011;34352;51.084;3.712;2022-07-23T12:56:17;4.32;;;3.92;;
48574;SDS011;34352;51.084;3.712;2022-07-23T12:59:19;4.85;;;3.50;;
48574;SDS011;34352;51.084;3.712;2022-07-23T13:01:41;4.15;;;3.50;;
48574;SDS011;34352;51.084;3.712;2022-07-23T13:04:14;3.80;;;3.50;;
48574;SDS011;34352;51.084;3.712;2022-07-23T13:06:47;5.32;;;3.75;;
48574;SDS011;34352;51.084;3.712;2022-07-23T13:09:23;5.47;;;3.90;;
48574;SDS011;34352;51.084;3.712;2022-07-23T13:11:51;5.53;;;3.80;;
48574;SDS011;34352;51.084;3.712;2022-07-23T13:14:18;6.20;;;3.55;;
48574;SDS011;34352;51.084;3.712;2022-07-23T13:16:46;6.43;;;3.78;;
48574;SDS011;34352;51.084;3.712;2022-07-23T13:19:13;5.28;;;4.10;;
48574;SDS011;34352;51.084;3.712;2022-07-23T13:21:43;6.68;;;4.20;;
48574;SDS011;34352;51.084;3.712;2022-07-23T13:24:09;4.43;;;3.90;;
48574;SDS011;34352;51.084;3.712;2022-07-23T13:26:38;4.13;;;3.72;;
48574;SDS011;34352;51.084;3.712;2022-07-23T13:29:04;6.15;;;4.25;;
48574;SDS011;34352;51.084;3.712;2022-07-23T13:31:30;5.55;;;4.60;;
48574;SDS011;34352;51.084;3.712;2022-07-23T13:33:55;6.15;;;4.47;;
48574;SDS011;34352;51.084;3.712;2022-07-23T13:36:21;7.97;;;4.10;;
48574;SDS011;34352;51.084;3.712;2022-07-23T13:38:48;5.95;;;4.40;;
48574;SDS011;34352;51.084;3.712;2022-07-23T13:41:14;6.68;;;4.10;;
48574;SDS011;34352;51.084;3.712;2022-07-23T13:43:42;6.20;;;4.45;;
48574;SDS011;34352;51.084;3.712;2022-07-23T13:46:08;4.65;;;3.83;;
48574;SDS011;34352;51.084;3.712;2022-07-23T13:48:34;4.90;;;4.40;;
48574;SDS011;34352;51.084;3.712;2022-07-23T13:50:59;7.75;;;4.85;;
48574;SDS011;34352;51.084;3.712;2022-07-23T13:53:25;7.20;;;4.50;;
48574;SDS011;34352;51.084;3.712;2022-07-23T13:55:51;6.15;;;4.70;;
48574;SDS011;34352;51.084;3.712;2022-07-23T13:58:19;5.38;;;4.25;;
48574;SDS011;34352;51.084;3.712;2022-07-23T14:00:47;6.45;;;4.90;;
48574;SDS011;34352;51.084;3.712;2022-07-23T14:03:15;5.32;;;4.82;;
48574;SDS011;34352;51.084;3.712;2022-07-23T14:05:43;7.10;;;5.25;;
48574;SDS011;34352;51.084;3.712;2022-07-23T14:08:09;5.45;;;4.82;;
48574;SDS011;34352;51.084;3.712;2022-07-23T14:10:34;7.63;;;5.07;;
48574;SDS011;34352;51.084;3.712;2022-07-23T14:13:02;6.22;;;5.05;;
48574;SDS011;34352;51.084;3.712;2022-07-23T14:15:29;8.40;;;5.57;;
48574;SDS011;34352;51.084;3.712;2022-07-23T14:17:55;6.28;;;4.97;;
48574;SDS011;34352;51.084;3.712;2022-07-23T14:20:21;7.07;;;5.20;;
48574;SDS011;34352;51.084;3.712;2022-07-23T14:22:48;7.43;;;5.68;;
48574;SDS011;34352;51.084;3.712;2022-07-23T14:25:14;6.68;;;6.00;;
48574;SDS011;34352;51.084;3.712;2022-07-23T14:27:40;8.63;;;6.35;;
48574;SDS011;34352;51.084;3.712;2022-07-23T14:30:07;7.60;;;5.80;;
48574;SDS011;34352;51.084;3.712;2022-07-23T14:32:34;6.57;;;5.50;;
48574;SDS011;34352;51.084;3.712;2022-07-23T14:35:00;6.68;;;5.70;;
48574;SDS011;34352;51.084;3.712;2022-07-23T14:37:26;6.65;;;5.95;;
48574;SDS011;34352;51.084;3.712;2022-07-23T14:39:51;7.40;;;5.90;;
48574;SDS011;34352;51.084;3.712;2022-07-23T14:42:17;8.73;;;6.47;;
48574;SDS011;34352;51.084;3.712;2022-07-23T14:44:44;6.95;;;6.03;;
48574;SDS011;34352;51.084;3.712;2022-07-23T14:47:11;8.35;;;6.05;;
48574;SDS011;34352;51.084;3.712;2022-07-23T14:49:37;6.90;;;5.78;;
48574;SDS011;34352;51.084;3.712;2022-07-23T14:52:04;7.75;;;6.88;;
48574;SDS011;34352;51.084;3.712;2022-07-23T14:54:30;8.48;;;6.22;;
48574;SDS011;34352;51.084;3.712;2022-07-23T14:56:56;7.63;;;6.13;;
48574;SDS011;34352;51.084;3.712;2022-07-23T14:59:23;7.72;;;6.32;;
48574;SDS011;34352;51.084;3.712;2022-07-23T15:01:50;9.77;;;6.47;;
48574;SDS011;34352;51.084;3.712;2022-07-23T15:04:16;8.23;;;6.78;;
48574;SDS011;34352;51.084;3.712;2022-07-23T15:06:42;8.57;;;6.43;;
48574;SDS011;34352;51.084;3.712;2022-07-23T15:09:08;7.13;;;6.43;;
48574;SDS011;34352;51.084;3.712;2022-07-23T15:11:34;8.75;;;6.20;;
48574;SDS011;34352;51.084;3.712;2022-07-23T15:14:01;8.70;;;6.95;;
48574;SDS011;34352;51.084;3.712;2022-07-23T15:16:27;7.63;;;6.05;;
48574;SDS011;34352;51.084;3.712;2022-07-23T15:18:53;9.40;;;6.75;;
48574;SDS011;34352;51.084;3.712;2022-07-23T15:21:19;8.27;;;6.70;;
48574;SDS011;34352;51.084;3.712;2022-07-23T15:23:48;10.43;;;8.27;;
48574;SDS011;34352;51.084;3.712;2022-07-23T15:26:14;8.55;;;7.65;;
48574;SDS011;34352;51.084;3.712;2022-07-23T15:28:40;9.55;;;7.57;;
48574;SDS011;34352;51.084;3.712;2022-07-23T15:31:06;11.55;;;8.40;;
48574;SDS011;34352;51.084;3.712;2022-07-23T15:33:32;9.60;;;8.10;;
48574;SDS011;34352;51.084;3.712;2022-07-23T15:35:58;8.73;;;7.82;;
48574;SDS011;34352;51.084;3.712;2022-07-23T15:38:24;9.45;;;7.72;;
48574;SDS011;34352;51.084;3.712;2022-07-23T15:40:51;8.55;;;7.65;;
48574;SDS011;34352;51.084;3.712;2022-07-23T15:43:23;12.05;;;8.00;;
48574;SDS011;34352;51.084;3.712;2022-07-23T15:45:50;10.48;;;8.73;;